Airfield :







YOU CAN JOIN US ON...

 
LOGIN :

Register | Disclaimer

   EN    FR    IT 

 









Legend :    VFR   Marginal VFR   IFR   Intensive IFR   Very Intensive IFR
Visi :
Ceiling :
>= 8 km
>= 3000ft
5 to 8 km
1000 to 3000 ft
1500m to 5 km
500 to 1000 ft
800 to 1500m
200 to 500 ft
< 800m
< 200 ft
Symbols :   Thunderstorms  Fog  Heavy snow  Heavy precipitations  Wind > 20 kt






- Airport Elevation : 121 ft
- IATA code : YBX


CYBX - Lourdes De Blanc Sablon

CURRENT METAR :
  • 171200Z 06002KT 15SM FEW150 BKN250 04/01 A3007 RMK AC1CI5 AC TR SLP187

EXPIRED METARs :
  • 171100Z 00000KT 15SM FEW150 FEW250 01/M01 A3006 RMK AC1CI1 SLP182
  • 171000Z 04005KT 15SM FEW010 FEW190 SCT240 01/M00 A3004 RMK ST1AC1CI2 ST TR SLP176

TAF TAF CYBX
Valid from the 17 at 08:00 until the 17 at 20:00 UTC


170738Z 1708/1720 VRB03KT 6SM BR SKC
PROB30 1708/1712 1SM BR BKN003
FM171200 07006KT P6SM SCT250
BECMG 1717/1719 09012KT RMK NXT FCST BY 171400Z



MET'MAP, your aeronautical weather chart ! - Copyright ORBIFLY December 2007 - Disclaimer

ORBIFLY MET'MAP TEAM :

Programming & Development : Alexandra Zaïnal
Concept & Development : Baudouin d'Aumeries
Co-Development & Prog : Marc-Olivier Méhu
Technical & hardware support : Manuel Goepfert

Contact : metmap@orbifly.com




SOURCES & CREDITS :

   NOAA